sensor_id;sensor_type;location;lat;lon;timestamp;temperature;humidity
24162;DHT22;12318;51.262;7.066;2022-11-03T00:01:54;10.20;99.90
24162;DHT22;12318;51.262;7.066;2022-11-03T00:04:21;10.20;99.90
24162;DHT22;12318;51.262;7.066;2022-11-03T00:06:49;10.20;99.90
24162;DHT22;12318;51.262;7.066;2022-11-03T00:09:16;10.20;99.90
24162;DHT22;12318;51.262;7.066;2022-11-03T00:11:43;10.10;99.90
24162;DHT22;12318;51.262;7.066;2022-11-03T00:14:10;10.20;99.90
24162;DHT22;12318;51.262;7.066;2022-11-03T00:16:37;10.20;99.90
24162;DHT22;12318;51.262;7.066;2022-11-03T00:19:04;10.20;99.90
24162;DHT22;12318;51.262;7.066;2022-11-03T00:21:30;10.20;99.90
24162;DHT22;12318;51.262;7.066;2022-11-03T00:23:56;10.20;99.90
24162;DHT22;12318;51.262;7.066;2022-11-03T00:26:27;10.30;99.90
24162;DHT22;12318;51.262;7.066;2022-11-03T00:29:00;10.30;99.90
24162;DHT22;12318;51.262;7.066;2022-11-03T00:31:29;10.30;99.90
24162;DHT22;12318;51.262;7.066;2022-11-03T00:33:55;10.30;99.90
24162;DHT22;12318;51.262;7.066;2022-11-03T00:36:26;10.30;99.90
24162;DHT22;12318;51.262;7.066;2022-11-03T00:38:52;10.30;99.90
24162;DHT22;12318;51.262;7.066;2022-11-03T00:41:19;10.30;99.90
24162;DHT22;12318;51.262;7.066;2022-11-03T00:43:46;10.40;99.90
24162;DHT22;12318;51.262;7.066;2022-11-03T00:46:12;10.40;99.90
24162;DHT22;12318;51.262;7.066;2022-11-03T00:48:38;10.30;99.90
24162;DHT22;12318;51.262;7.066;2022-11-03T00:51:20;10.30;99.90
24162;DHT22;12318;51.262;7.066;2022-11-03T00:53:47;10.30;99.90
24162;DHT22;12318;51.262;7.066;2022-11-03T00:56:15;10.30;99.90
24162;DHT22;12318;51.262;7.066;2022-11-03T00:58:42;10.30;99.90
24162;DHT22;12318;51.262;7.066;2022-11-03T01:01:12;10.30;99.90
24162;DHT22;12318;51.262;7.066;2022-11-03T01:03:39;10.30;99.90
24162;DHT22;12318;51.262;7.066;2022-11-03T01:06:08;10.30;99.90
24162;DHT22;12318;51.262;7.066;2022-11-03T01:08:53;10.30;99.90
24162;DHT22;12318;51.262;7.066;2022-11-03T01:11:22;10.20;99.90
24162;DHT22;12318;51.262;7.066;2022-11-03T01:14:11;10.30;99.90
24162;DHT22;12318;51.262;7.066;2022-11-03T01:16:37;10.20;99.90
24162;DHT22;12318;51.262;7.066;2022-11-03T01:19:03;10.20;99.90
24162;DHT22;12318;51.262;7.066;2022-11-03T01:21:29;10.20;99.90
24162;DHT22;12318;51.262;7.066;2022-11-03T01:23:55;10.30;99.90
24162;DHT22;12318;51.262;7.066;2022-11-03T01:26:21;10.20;99.90
24162;DHT22;12318;51.262;7.066;2022-11-03T01:28:47;10.20;99.90
24162;DHT22;12318;51.262;7.066;2022-11-03T01:31:22;10.30;99.90
24162;DHT22;12318;51.262;7.066;2022-11-03T01:33:52;10.20;99.90
24162;DHT22;12318;51.262;7.066;2022-11-03T01:36:19;10.20;99.90
24162;DHT22;12318;51.262;7.066;2022-11-03T01:38:46;10.10;99.90
24162;DHT22;12318;51.262;7.066;2022-11-03T01:41:20;10.20;99.90
24162;DHT22;12318;51.262;7.066;2022-11-03T01:43:51;10.20;99.90
24162;DHT22;12318;51.262;7.066;2022-11-03T01:46:29;10.20;99.90
24162;DHT22;12318;51.262;7.066;2022-11-03T01:48:59;10.20;99.90
24162;DHT22;12318;51.262;7.066;2022-11-03T01:51:28;10.10;99.90
24162;DHT22;12318;51.262;7.066;2022-11-03T01:53:57;10.00;99.90
24162;DHT22;12318;51.262;7.066;2022-11-03T01:56:25;10.00;99.90
24162;DHT22;12318;51.262;7.066;2022-11-03T01:58:53;10.00;99.90
24162;DHT22;12318;51.262;7.066;2022-11-03T02:01:20;10.00;99.90
24162;DHT22;12318;51.262;7.066;2022-11-03T02:03:50;10.00;99.90
24162;DHT22;12318;51.262;7.066;2022-11-03T02:06:20;10.00;99.90
24162;DHT22;12318;51.262;7.066;2022-11-03T02:08:57;9.90;99.90
24162;DHT22;12318;51.262;7.066;2022-11-03T02:11:24;9.90;99.90
24162;DHT22;12318;51.262;7.066;2022-11-03T02:14:12;9.90;99.90
24162;DHT22;12318;51.262;7.066;2022-11-03T02:16:44;9.90;99.90
24162;DHT22;12318;51.262;7.066;2022-11-03T02:25:10;10.00;99.90
24162;DHT22;12318;51.262;7.066;2022-11-03T02:27:38;10.10;99.90
24162;DHT22;12318;51.262;7.066;2022-11-03T02:30:07;10.10;99.90
24162;DHT22;12318;51.262;7.066;2022-11-03T02:35:11;10.00;99.90
24162;DHT22;12318;51.262;7.066;2022-11-03T02:37:43;10.00;99.90
24162;DHT22;12318;51.262;7.066;2022-11-03T02:40:27;10.00;99.90
24162;DHT22;12318;51.262;7.066;2022-11-03T02:42:55;10.00;99.90
24162;DHT22;12318;51.262;7.066;2022-11-03T02:45:23;10.10;99.90
24162;DHT22;12318;51.262;7.066;2022-11-03T02:47:53;10.10;99.90
24162;DHT22;12318;51.262;7.066;2022-11-03T02:50:25;10.10;99.90
24162;DHT22;12318;51.262;7.066;2022-11-03T02:52:51;10.10;99.90
24162;DHT22;12318;51.262;7.066;2022-11-03T02:56:00;10.10;99.90
24162;DHT22;12318;51.262;7.066;2022-11-03T03:01:21;10.20;99.90
24162;DHT22;12318;51.262;7.066;2022-11-03T03:03:54;10.20;99.90
24162;DHT22;12318;51.262;7.066;2022-11-03T03:08:59;10.20;99.90
24162;DHT22;12318;51.262;7.066;2022-11-03T03:11:25;10.20;99.90
24162;DHT22;12318;51.262;7.066;2022-11-03T03:14:09;10.20;99.90
24162;DHT22;12318;51.262;7.066;2022-11-03T03:16:54;10.30;99.90
24162;DHT22;12318;51.262;7.066;2022-11-03T03:22:02;10.30;99.90
24162;DHT22;12318;51.262;7.066;2022-11-03T03:24:56;10.40;99.90
24162;DHT22;12318;51.262;7.066;2022-11-03T03:27:26;10.40;99.90
24162;DHT22;12318;51.262;7.066;2022-11-03T03:30:00;10.40;99.90
24162;DHT22;12318;51.262;7.066;2022-11-03T03:32:29;10.40;99.90
24162;DHT22;12318;51.262;7.066;2022-11-03T03:34:58;10.40;99.90
24162;DHT22;12318;51.262;7.066;2022-11-03T03:37:26;10.40;99.90
24162;DHT22;12318;51.262;7.066;2022-11-03T03:39:54;10.40;99.90
24162;DHT22;12318;51.262;7.066;2022-11-03T03:42:24;10.40;99.90
24162;DHT22;12318;51.262;7.066;2022-11-03T03:44:52;10.40;99.90
24162;DHT22;12318;51.262;7.066;2022-11-03T03:47:28;10.40;99.90
24162;DHT22;12318;51.262;7.066;2022-11-03T03:49:56;10.40;99.90
24162;DHT22;12318;51.262;7.066;2022-11-03T03:52:22;10.50;99.90
24162;DHT22;12318;51.262;7.066;2022-11-03T03:54:48;10.50;99.90
24162;DHT22;12318;51.262;7.066;2022-11-03T03:57:20;10.40;99.90
24162;DHT22;12318;51.262;7.066;2022-11-03T03:59:47;10.50;99.90
24162;DHT22;12318;51.262;7.066;2022-11-03T04:02:13;10.50;99.90
24162;DHT22;12318;51.262;7.066;2022-11-03T04:04:38;10.50;99.90
24162;DHT22;12318;51.262;7.066;2022-11-03T04:07:05;10.50;99.90
24162;DHT22;12318;51.262;7.066;2022-11-03T04:09:49;10.50;99.90
24162;DHT22;12318;51.262;7.066;2022-11-03T04:12:15;10.50;99.90
24162;DHT22;12318;51.262;7.066;2022-11-03T04:14:59;10.40;99.90
24162;DHT22;12318;51.262;7.066;2022-11-03T04:17:45;10.50;99.90
24162;DHT22;12318;51.262;7.066;2022-11-03T04:20:30;10.60;99.90
24162;DHT22;12318;51.262;7.066;2022-11-03T04:23:14;10.50;99.90
24162;DHT22;12318;51.262;7.066;2022-11-03T04:25:41;10.50;99.90
24162;DHT22;12318;51.262;7.066;2022-11-03T04:28:12;10.50;99.90
24162;DHT22;12318;51.262;7.066;2022-11-03T04:30:39;10.40;99.90
24162;DHT22;12318;51.262;7.066;2022-11-03T04:33:16;10.40;99.90
24162;DHT22;12318;51.262;7.066;2022-11-03T04:35:43;10.40;99.90
24162;DHT22;12318;51.262;7.066;2022-11-03T04:38:22;10.30;99.90
24162;DHT22;12318;51.262;7.066;2022-11-03T04:40:53;10.30;99.90
24162;DHT22;12318;51.262;7.066;2022-11-03T04:43:21;10.30;99.90
24162;DHT22;12318;51.262;7.066;2022-11-03T04:45:48;10.30;99.90
24162;DHT22;12318;51.262;7.066;2022-11-03T04:48:20;10.30;99.90
24162;DHT22;12318;51.262;7.066;2022-11-03T04:50:49;10.30;99.90
24162;DHT22;12318;51.262;7.066;2022-11-03T04:53:18;10.30;99.90
24162;DHT22;12318;51.262;7.066;2022-11-03T04:55:45;10.40;99.90
24162;DHT22;12318;51.262;7.066;2022-11-03T05:00:52;10.50;99.90
24162;DHT22;12318;51.262;7.066;2022-11-03T05:03:22;10.50;99.90
24162;DHT22;12318;51.262;7.066;2022-11-03T05:05:49;10.50;99.90
24162;DHT22;12318;51.262;7.066;2022-11-03T05:08:19;10.60;99.90
24162;DHT22;12318;51.262;7.066;2022-11-03T05:10:46;10.60;99.90
24162;DHT22;12318;51.262;7.066;2022-11-03T05:13:32;10.60;99.90
24162;DHT22;12318;51.262;7.066;2022-11-03T05:16:03;10.70;99.90
24162;DHT22;12318;51.262;7.066;2022-11-03T05:18:32;10.70;99.90
24162;DHT22;12318;51.262;7.066;2022-11-03T05:20:58;10.70;99.90
24162;DHT22;12318;51.262;7.066;2022-11-03T05:23:27;10.70;99.90
24162;DHT22;12318;51.262;7.066;2022-11-03T05:25:56;10.70;99.90
24162;DHT22;12318;51.262;7.066;2022-11-03T05:28:27;10.60;99.90
24162;DHT22;12318;51.262;7.066;2022-11-03T05:30:55;10.60;99.90
24162;DHT22;12318;51.262;7.066;2022-11-03T05:33:34;10.60;99.90
24162;DHT22;12318;51.262;7.066;2022-11-03T05:36:06;10.50;99.90
24162;DHT22;12318;51.262;7.066;2022-11-03T05:38:32;10.50;99.90
24162;DHT22;12318;51.262;7.066;2022-11-03T05:40:59;10.60;99.90
24162;DHT22;12318;51.262;7.066;2022-11-03T05:43:27;10.60;99.90
24162;DHT22;12318;51.262;7.066;2022-11-03T05:45:56;10.60;99.90
24162;DHT22;12318;51.262;7.066;2022-11-03T05:48:32;10.50;99.90
24162;DHT22;12318;51.262;7.066;2022-11-03T05:50:59;10.50;99.90
24162;DHT22;12318;51.262;7.066;2022-11-03T05:53:34;10.50;99.90
24162;DHT22;12318;51.262;7.066;2022-11-03T05:56:03;10.60;99.90
24162;DHT22;12318;51.262;7.066;2022-11-03T05:58:34;10.60;99.90
24162;DHT22;12318;51.262;7.066;2022-11-03T06:03:47;10.60;99.90
24162;DHT22;12318;51.262;7.066;2022-11-03T06:06:29;10.60;99.90
24162;DHT22;12318;51.262;7.066;2022-11-03T06:08:58;10.70;99.90
24162;DHT22;12318;51.262;7.066;2022-11-03T06:11:39;10.70;99.90
24162;DHT22;12318;51.262;7.066;2022-11-03T06:14:19;10.70;99.90
24162;DHT22;12318;51.262;7.066;2022-11-03T06:17:10;10.70;99.90
24162;DHT22;12318;51.262;7.066;2022-11-03T06:19:44;10.70;99.90
24162;DHT22;12318;51.262;7.066;2022-11-03T06:22:25;10.70;99.90
24162;DHT22;12318;51.262;7.066;2022-11-03T06:24:58;10.70;99.90
24162;DHT22;12318;51.262;7.066;2022-11-03T06:27:27;10.70;99.90
24162;DHT22;12318;51.262;7.066;2022-11-03T06:30:18;10.70;99.90
24162;DHT22;12318;51.262;7.066;2022-11-03T06:32:44;10.60;99.90
24162;DHT22;12318;51.262;7.066;2022-11-03T06:35:12;10.60;99.90
24162;DHT22;12318;51.262;7.066;2022-11-03T06:37:39;10.60;99.90
24162;DHT22;12318;51.262;7.066;2022-11-03T06:42:34;10.70;99.90
24162;DHT22;12318;51.262;7.066;2022-11-03T06:45:01;10.80;99.90
24162;DHT22;12318;51.262;7.066;2022-11-03T06:47:34;10.80;99.90
24162;DHT22;12318;51.262;7.066;2022-11-03T06:50:00;10.80;99.90
24162;DHT22;12318;51.262;7.066;2022-11-03T06:52:32;10.80;99.90
24162;DHT22;12318;51.262;7.066;2022-11-03T06:55:01;10.90;99.90
24162;DHT22;12318;51.262;7.066;2022-11-03T06:57:37;10.90;99.90
24162;DHT22;12318;51.262;7.066;2022-11-03T07:00:26;11.00;99.90
24162;DHT22;12318;51.262;7.066;2022-11-03T07:03:05;11.10;99.90
24162;DHT22;12318;51.262;7.066;2022-11-03T07:05:34;11.20;99.90
24162;DHT22;12318;51.262;7.066;2022-11-03T07:08:02;11.20;99.90
24162;DHT22;12318;51.262;7.066;2022-11-03T07:10:31;11.20;99.90
24162;DHT22;12318;51.262;7.066;2022-11-03T07:13:08;11.20;99.90
24162;DHT22;12318;51.262;7.066;2022-11-03T07:15:35;11.20;99.90
24162;DHT22;12318;51.262;7.066;2022-11-03T07:18:12;11.20;99.90
24162;DHT22;12318;51.262;7.066;2022-11-03T07:20:39;11.20;99.90
24162;DHT22;12318;51.262;7.066;2022-11-03T07:23:11;11.20;99.90
24162;DHT22;12318;51.262;7.066;2022-11-03T07:25:39;11.20;99.90
24162;DHT22;12318;51.262;7.066;2022-11-03T07:28:05;11.20;99.90
24162;DHT22;12318;51.262;7.066;2022-11-03T07:30:34;11.20;99.90
24162;DHT22;12318;51.262;7.066;2022-11-03T07:33:13;11.30;99.90
24162;DHT22;12318;51.262;7.066;2022-11-03T07:35:44;11.30;99.90
24162;DHT22;12318;51.262;7.066;2022-11-03T07:38:18;11.30;99.90
24162;DHT22;12318;51.262;7.066;2022-11-03T07:40:45;11.30;99.90
24162;DHT22;12318;51.262;7.066;2022-11-03T07:43:29;11.30;99.90
24162;DHT22;12318;51.262;7.066;2022-11-03T07:45:58;11.30;99.90
24162;DHT22;12318;51.262;7.066;2022-11-03T07:48:36;11.50;99.90
24162;DHT22;12318;51.262;7.066;2022-11-03T07:51:30;11.60;99.90
24162;DHT22;12318;51.262;7.066;2022-11-03T07:54:04;11.60;99.90
24162;DHT22;12318;51.262;7.066;2022-11-03T07:56:57;11.70;99.90
24162;DHT22;12318;51.262;7.066;2022-11-03T07:59:37;11.70;99.90
24162;DHT22;12318;51.262;7.066;2022-11-03T08:02:36;11.80;99.90
24162;DHT22;12318;51.262;7.066;2022-11-03T08:05:04;11.80;99.90
24162;DHT22;12318;51.262;7.066;2022-11-03T08:07:30;11.80;99.90
24162;DHT22;12318;51.262;7.066;2022-11-03T08:09:57;11.80;99.90
24162;DHT22;12318;51.262;7.066;2022-11-03T08:12:23;11.80;99.90
24162;DHT22;12318;51.262;7.066;2022-11-03T08:14:49;11.80;99.90
24162;DHT22;12318;51.262;7.066;2022-11-03T08:17:15;11.80;99.90
24162;DHT22;12318;51.262;7.066;2022-11-03T08:19:41;12.00;99.90
24162;DHT22;12318;51.262;7.066;2022-11-03T08:22:06;12.00;99.90
24162;DHT22;12318;51.262;7.066;2022-11-03T08:24:32;12.00;99.90
24162;DHT22;12318;51.262;7.066;2022-11-03T08:26:58;12.10;99.90
24162;DHT22;12318;51.262;7.066;2022-11-03T08:29:24;12.10;99.90
24162;DHT22;12318;51.262;7.066;2022-11-03T08:31:52;12.10;99.90
24162;DHT22;12318;51.262;7.066;2022-11-03T08:34:18;12.10;99.90
24162;DHT22;12318;51.262;7.066;2022-11-03T08:36:44;12.10;99.90
24162;DHT22;12318;51.262;7.066;2022-11-03T08:39:10;12.10;99.90
24162;DHT22;12318;51.262;7.066;2022-11-03T08:41:36;12.20;99.90
24162;DHT22;12318;51.262;7.066;2022-11-03T08:44:02;12.10;99.90
24162;DHT22;12318;51.262;7.066;2022-11-03T08:46:28;12.20;99.90
24162;DHT22;12318;51.262;7.066;2022-11-03T08:48:54;12.30;99.90
24162;DHT22;12318;51.262;7.066;2022-11-03T08:51:20;12.40;99.90
24162;DHT22;12318;51.262;7.066;2022-11-03T08:53:45;12.40;99.90
24162;DHT22;12318;51.262;7.066;2022-11-03T08:56:14;12.50;99.90
24162;DHT22;12318;51.262;7.066;2022-11-03T08:58:41;12.60;99.90
24162;DHT22;12318;51.262;7.066;2022-11-03T09:01:07;12.60;99.90
24162;DHT22;12318;51.262;7.066;2022-11-03T09:03:33;12.70;99.90
24162;DHT22;12318;51.262;7.066;2022-11-03T09:05:58;12.80;99.90
24162;DHT22;12318;51.262;7.066;2022-11-03T09:08:24;12.80;99.90
24162;DHT22;12318;51.262;7.066;2022-11-03T09:10:50;12.80;99.90
24162;DHT22;12318;51.262;7.066;2022-11-03T09:13:16;13.00;99.90
24162;DHT22;12318;51.262;7.066;2022-11-03T09:15:41;13.00;99.90
24162;DHT22;12318;51.262;7.066;2022-11-03T09:18:07;13.00;99.90
24162;DHT22;12318;51.262;7.066;2022-11-03T09:20:33;13.20;99.90
24162;DHT22;12318;51.262;7.066;2022-11-03T09:22:59;13.30;99.90
24162;DHT22;12318;51.262;7.066;2022-11-03T09:25:24;13.30;99.90
24162;DHT22;12318;51.262;7.066;2022-11-03T09:27:50;13.40;99.90
24162;DHT22;12318;51.262;7.066;2022-11-03T09:30:16;13.60;99.90
24162;DHT22;12318;51.262;7.066;2022-11-03T09:32:42;13.70;99.90
24162;DHT22;12318;51.262;7.066;2022-11-03T09:35:10;13.70;99.90
24162;DHT22;12318;51.262;7.066;2022-11-03T09:37:36;13.70;99.90
24162;DHT22;12318;51.262;7.066;2022-11-03T09:40:03;13.70;99.90
24162;DHT22;12318;51.262;7.066;2022-11-03T09:42:30;13.60;99.90
24162;DHT22;12318;51.262;7.066;2022-11-03T09:44:58;13.60;99.90
24162;DHT22;12318;51.262;7.066;2022-11-03T09:47:32;13.60;99.90
24162;DHT22;12318;51.262;7.066;2022-11-03T09:49:59;13.70;99.90
24162;DHT22;12318;51.262;7.066;2022-11-03T09:52:25;13.70;99.90
24162;DHT22;12318;51.262;7.066;2022-11-03T09:54:52;13.70;99.90
24162;DHT22;12318;51.262;7.066;2022-11-03T09:57:22;13.70;99.90
24162;DHT22;12318;51.262;7.066;2022-11-03T09:59:49;13.70;99.90
24162;DHT22;12318;51.262;7.066;2022-11-03T10:02:26;13.80;99.90
24162;DHT22;12318;51.262;7.066;2022-11-03T10:04:54;13.60;99.90
24162;DHT22;12318;51.262;7.066;2022-11-03T10:07:21;13.60;99.90
24162;DHT22;12318;51.262;7.066;2022-11-03T10:09:49;13.70;99.90
24162;DHT22;12318;51.262;7.066;2022-11-03T10:12:16;13.70;99.90
24162;DHT22;12318;51.262;7.066;2022-11-03T10:14:44;13.70;99.90
24162;DHT22;12318;51.262;7.066;2022-11-03T10:17:19;13.70;99.90
24162;DHT22;12318;51.262;7.066;2022-11-03T10:19:49;13.60;99.90
24162;DHT22;12318;51.262;7.066;2022-11-03T10:22:16;13.60;99.90
24162;DHT22;12318;51.262;7.066;2022-11-03T10:24:42;13.60;99.90
24162;DHT22;12318;51.262;7.066;2022-11-03T10:27:24;13.70;99.90
24162;DHT22;12318;51.262;7.066;2022-11-03T10:30:08;13.90;99.90
24162;DHT22;12318;51.262;7.066;2022-11-03T10:32:34;13.80;99.90
24162;DHT22;12318;51.262;7.066;2022-11-03T10:35:01;13.90;99.90
24162;DHT22;12318;51.262;7.066;2022-11-03T10:37:27;13.80;99.90
24162;DHT22;12318;51.262;7.066;2022-11-03T10:39:55;13.80;99.90
24162;DHT22;12318;51.262;7.066;2022-11-03T10:42:49;13.90;99.90
24162;DHT22;12318;51.262;7.066;2022-11-03T10:45:22;13.90;99.90
24162;DHT22;12318;51.262;7.066;2022-11-03T10:48:15;13.90;99.90
24162;DHT22;12318;51.262;7.066;2022-11-03T10:50:40;13.90;99.90
24162;DHT22;12318;51.262;7.066;2022-11-03T10:53:24;13.90;99.90
24162;DHT22;12318;51.262;7.066;2022-11-03T10:55:50;13.90;99.90
24162;DHT22;12318;51.262;7.066;2022-11-03T10:58:19;13.90;99.90
24162;DHT22;12318;51.262;7.066;2022-11-03T11:00:45;13.90;99.90
24162;DHT22;12318;51.262;7.066;2022-11-03T11:03:11;14.00;99.90
24162;DHT22;12318;51.262;7.066;2022-11-03T11:05:43;14.00;99.90
24162;DHT22;12318;51.262;7.066;2022-11-03T11:08:10;14.00;99.90
24162;DHT22;12318;51.262;7.066;2022-11-03T11:10:43;13.90;99.90
24162;DHT22;12318;51.262;7.066;2022-11-03T11:16:00;13.90;99.90
24162;DHT22;12318;51.262;7.066;2022-11-03T11:20:59;13.90;99.90
24162;DHT22;12318;51.262;7.066;2022-11-03T11:26:28;13.80;99.90
24162;DHT22;12318;51.262;7.066;2022-11-03T11:31:44;13.80;99.90
24162;DHT22;12318;51.262;7.066;2022-11-03T11:36:44;13.90;99.90
24162;DHT22;12318;51.262;7.066;2022-11-03T11:42:14;13.80;99.90
24162;DHT22;12318;51.262;7.066;2022-11-03T11:50:11;13.90;99.90
24162;DHT22;12318;51.262;7.066;2022-11-03T11:53:02;14.00;99.90
24162;DHT22;12318;51.262;7.066;2022-11-03T11:55:47;14.00;99.90
24162;DHT22;12318;51.262;7.066;2022-11-03T11:58:22;13.90;99.90
24162;DHT22;12318;51.262;7.066;2022-11-03T12:00:55;13.70;99.90
24162;DHT22;12318;51.262;7.066;2022-11-03T12:03:27;13.70;99.90
24162;DHT22;12318;51.262;7.066;2022-11-03T12:05:55;13.60;99.90
24162;DHT22;12318;51.262;7.066;2022-11-03T12:08:28;13.50;99.90
24162;DHT22;12318;51.262;7.066;2022-11-03T12:10:56;13.50;99.90
24162;DHT22;12318;51.262;7.066;2022-11-03T12:13:43;13.60;99.90
24162;DHT22;12318;51.262;7.066;2022-11-03T12:18:56;13.60;99.90
24162;DHT22;12318;51.262;7.066;2022-11-03T12:21:44;13.60;99.90
24162;DHT22;12318;51.262;7.066;2022-11-03T12:24:34;13.50;99.90
24162;DHT22;12318;51.262;7.066;2022-11-03T12:27:02;13.50;99.90
24162;DHT22;12318;51.262;7.066;2022-11-03T12:29:28;13.50;99.90
24162;DHT22;12318;51.262;7.066;2022-11-03T12:32:00;13.50;99.90
24162;DHT22;12318;51.262;7.066;2022-11-03T12:34:26;13.50;99.90
24162;DHT22;12318;51.262;7.066;2022-11-03T12:36:52;13.50;99.90
24162;DHT22;12318;51.262;7.066;2022-11-03T12:39:17;13.60;99.90
24162;DHT22;12318;51.262;7.066;2022-11-03T12:41:43;13.60;99.90
24162;DHT22;12318;51.262;7.066;2022-11-03T12:44:09;13.60;99.90
24162;DHT22;12318;51.262;7.066;2022-11-03T12:46:35;13.50;99.90
24162;DHT22;12318;51.262;7.066;2022-11-03T12:49:01;13.40;99.90
24162;DHT22;12318;51.262;7.066;2022-11-03T12:51:26;13.40;99.90
24162;DHT22;12318;51.262;7.066;2022-11-03T12:53:52;13.30;99.90
24162;DHT22;12318;51.262;7.066;2022-11-03T12:56:18;13.40;99.90
24162;DHT22;12318;51.262;7.066;2022-11-03T12:58:44;13.30;99.90
24162;DHT22;12318;51.262;7.066;2022-11-03T13:01:10;13.30;99.90
24162;DHT22;12318;51.262;7.066;2022-11-03T13:03:39;13.20;99.90
24162;DHT22;12318;51.262;7.066;2022-11-03T13:06:08;13.30;99.90
24162;DHT22;12318;51.262;7.066;2022-11-03T13:08:39;13.30;99.90
24162;DHT22;12318;51.262;7.066;2022-11-03T13:11:05;13.20;99.90
24162;DHT22;12318;51.262;7.066;2022-11-03T13:13:53;13.20;99.90
24162;DHT22;12318;51.262;7.066;2022-11-03T13:16:20;13.30;99.90
24162;DHT22;12318;51.262;7.066;2022-11-03T13:18:45;13.10;99.90
24162;DHT22;12318;51.262;7.066;2022-11-03T13:21:14;13.10;99.90
24162;DHT22;12318;51.262;7.066;2022-11-03T13:23:40;13.10;99.90
24162;DHT22;12318;51.262;7.066;2022-11-03T13:26:05;13.20;99.90
24162;DHT22;12318;51.262;7.066;2022-11-03T13:28:31;13.10;99.90
24162;DHT22;12318;51.262;7.066;2022-11-03T13:30:57;13.20;99.90
24162;DHT22;12318;51.262;7.066;2022-11-03T13:33:23;13.10;99.90
24162;DHT22;12318;51.262;7.066;2022-11-03T13:35:48;13.20;99.90
24162;DHT22;12318;51.262;7.066;2022-11-03T13:38:14;13.20;99.90
24162;DHT22;12318;51.262;7.066;2022-11-03T13:40:40;13.20;99.90
24162;DHT22;12318;51.262;7.066;2022-11-03T13:43:06;13.10;99.90
24162;DHT22;12318;51.262;7.066;2022-11-03T13:45:32;13.10;99.90
24162;DHT22;12318;51.262;7.066;2022-11-03T13:47:58;13.00;99.90
24162;DHT22;12318;51.262;7.066;2022-11-03T13:50:24;13.10;99.90
24162;DHT22;12318;51.262;7.066;2022-11-03T13:52:50;13.10;99.90
24162;DHT22;12318;51.262;7.066;2022-11-03T13:55:16;13.10;99.90
24162;DHT22;12318;51.262;7.066;2022-11-03T13:57:42;13.10;99.90
24162;DHT22;12318;51.262;7.066;2022-11-03T14:00:10;13.20;99.90
24162;DHT22;12318;51.262;7.066;2022-11-03T14:02:39;13.10;99.90
24162;DHT22;12318;51.262;7.066;2022-11-03T14:05:05;13.10;99.90
24162;DHT22;12318;51.262;7.066;2022-11-03T14:07:31;13.10;99.90
24162;DHT22;12318;51.262;7.066;2022-11-03T14:09:57;13.00;99.90
24162;DHT22;12318;51.262;7.066;2022-11-03T14:12:23;13.00;99.90
24162;DHT22;12318;51.262;7.066;2022-11-03T14:15:01;13.10;99.90
24162;DHT22;12318;51.262;7.066;2022-11-03T14:17:28;13.10;99.90
24162;DHT22;12318;51.262;7.066;2022-11-03T14:19:54;13.10;99.90
24162;DHT22;12318;51.262;7.066;2022-11-03T14:22:21;13.00;99.90
24162;DHT22;12318;51.262;7.066;2022-11-03T14:24:48;13.00;99.90
24162;DHT22;12318;51.262;7.066;2022-11-03T14:27:14;13.00;99.90
24162;DHT22;12318;51.262;7.066;2022-11-03T14:29:41;13.00;99.90
24162;DHT22;12318;51.262;7.066;2022-11-03T14:32:08;13.00;99.90
24162;DHT22;12318;51.262;7.066;2022-11-03T14:34:34;12.90;99.90
24162;DHT22;12318;51.262;7.066;2022-11-03T14:37:00;12.90;99.90
24162;DHT22;12318;51.262;7.066;2022-11-03T14:39:26;12.90;99.90
24162;DHT22;12318;51.262;7.066;2022-11-03T14:41:51;12.90;99.90
24162;DHT22;12318;51.262;7.066;2022-11-03T14:44:34;12.90;99.90
24162;DHT22;12318;51.262;7.066;2022-11-03T14:47:01;12.80;99.90
24162;DHT22;12318;51.262;7.066;2022-11-03T14:49:28;12.90;99.90
24162;DHT22;12318;51.262;7.066;2022-11-03T14:51:54;12.90;99.90
24162;DHT22;12318;51.262;7.066;2022-11-03T14:54:24;12.90;99.90
24162;DHT22;12318;51.262;7.066;2022-11-03T14:56:50;12.80;99.90
24162;DHT22;12318;51.262;7.066;2022-11-03T14:59:16;12.70;99.90
24162;DHT22;12318;51.262;7.066;2022-11-03T15:01:42;12.60;99.90
24162;DHT22;12318;51.262;7.066;2022-11-03T15:04:08;12.60;99.90
24162;DHT22;12318;51.262;7.066;2022-11-03T15:06:34;12.60;99.90
24162;DHT22;12318;51.262;7.066;2022-11-03T15:09:00;12.50;99.90
24162;DHT22;12318;51.262;7.066;2022-11-03T15:11:26;12.40;99.90
24162;DHT22;12318;51.262;7.066;2022-11-03T15:13:52;12.40;99.90
24162;DHT22;12318;51.262;7.066;2022-11-03T15:16:20;12.40;99.90
24162;DHT22;12318;51.262;7.066;2022-11-03T15:18:46;12.40;99.90
24162;DHT22;12318;51.262;7.066;2022-11-03T15:21:12;12.10;99.90
24162;DHT22;12318;51.262;7.066;2022-11-03T15:23:38;12.00;99.90
24162;DHT22;12318;51.262;7.066;2022-11-03T15:26:04;11.80;99.90
24162;DHT22;12318;51.262;7.066;2022-11-03T15:28:30;11.60;99.90
24162;DHT22;12318;51.262;7.066;2022-11-03T15:30:56;11.50;99.90
24162;DHT22;12318;51.262;7.066;2022-11-03T15:33:22;11.50;99.90
24162;DHT22;12318;51.262;7.066;2022-11-03T15:35:48;11.50;99.90
24162;DHT22;12318;51.262;7.066;2022-11-03T15:38:13;11.40;99.90
24162;DHT22;12318;51.262;7.066;2022-11-03T15:40:39;11.40;99.90
24162;DHT22;12318;51.262;7.066;2022-11-03T15:43:05;11.30;99.90
24162;DHT22;12318;51.262;7.066;2022-11-03T15:45:31;11.30;99.90
24162;DHT22;12318;51.262;7.066;2022-11-03T15:47:58;11.30;99.90
24162;DHT22;12318;51.262;7.066;2022-11-03T15:50:23;11.30;99.90
24162;DHT22;12318;51.262;7.066;2022-11-03T15:52:50;11.20;99.90
24162;DHT22;12318;51.262;7.066;2022-11-03T15:55:16;11.20;99.90
24162;DHT22;12318;51.262;7.066;2022-11-03T15:57:42;11.20;99.90
24162;DHT22;12318;51.262;7.066;2022-11-03T16:00:10;11.10;99.90
24162;DHT22;12318;51.262;7.066;2022-11-03T16:02:36;11.10;99.90
24162;DHT22;12318;51.262;7.066;2022-11-03T16:05:03;11.00;99.90
24162;DHT22;12318;51.262;7.066;2022-11-03T16:07:28;11.10;99.90
24162;DHT22;12318;51.262;7.066;2022-11-03T16:09:55;10.90;99.90
24162;DHT22;12318;51.262;7.066;2022-11-03T16:12:21;10.90;99.90
24162;DHT22;12318;51.262;7.066;2022-11-03T16:14:49;10.90;99.90
24162;DHT22;12318;51.262;7.066;2022-11-03T16:17:15;11.00;99.90
24162;DHT22;12318;51.262;7.066;2022-11-03T16:19:40;10.90;99.90
24162;DHT22;12318;51.262;7.066;2022-11-03T16:22:06;10.90;99.90
24162;DHT22;12318;51.262;7.066;2022-11-03T16:24:32;10.90;99.90
24162;DHT22;12318;51.262;7.066;2022-11-03T16:26:58;10.90;99.90
24162;DHT22;12318;51.262;7.066;2022-11-03T16:29:23;10.90;99.90
24162;DHT22;12318;51.262;7.066;2022-11-03T16:31:49;10.80;99.90
24162;DHT22;12318;51.262;7.066;2022-11-03T16:34:15;10.80;99.90
24162;DHT22;12318;51.262;7.066;2022-11-03T16:36:42;10.80;99.90